createdAt,value
2022-12-23T00:00:12.737Z,101207.97
2022-12-23T00:02:40.399Z,101169.97
2022-12-23T00:05:08.385Z,101205.53
2022-12-23T00:07:35.586Z,101205.97
2022-12-23T00:10:03.550Z,101213.19
2022-12-23T00:12:49.728Z,101188.38
2022-12-23T00:15:17.144Z,101189.59
2022-12-23T00:17:45.945Z,101184.78
2022-12-23T00:20:15.054Z,101170.81
2022-12-23T00:23:01.335Z,101135.63
2022-12-23T00:25:40.710Z,101173.59
2022-12-23T00:28:11.661Z,101208.38
2022-12-23T00:30:49.596Z,101174.78
2022-12-23T00:33:19.217Z,101201.97
2022-12-23T00:35:47.427Z,101181.19
2022-12-23T00:38:14.902Z,101185.19
2022-12-23T00:41:00.576Z,101159.22
2022-12-23T00:43:28.441Z,101173.97
2022-12-23T00:45:55.715Z,101159.22
2022-12-23T00:48:41.508Z,101186.41
2022-12-23T00:51:08.978Z,101179.19
2022-12-23T00:53:36.438Z,101149.22
2022-12-23T00:56:03.630Z,101117.22
2022-12-23T00:58:32.096Z,101179.19
2022-12-23T01:01:18.626Z,101176.38
2022-12-23T01:04:04.564Z,101161.59
2022-12-23T01:06:31.945Z,101180.38
2022-12-23T01:08:59.217Z,101170.78
2022-12-23T01:11:26.397Z,101174.75
2022-12-23T01:13:53.579Z,101171.19
2022-12-23T01:16:21.104Z,101138.00
2022-12-23T01:18:49.085Z,101130.81
2022-12-23T01:21:16.372Z,101185.16
2022-12-23T01:23:43.526Z,101177.56
2022-12-23T01:26:11.263Z,101150.78
2022-12-23T01:28:38.449Z,101183.16
2022-12-23T01:31:06.529Z,101178.75
2022-12-23T01:33:33.995Z,101171.94
2022-12-23T01:36:07.019Z,101175.56
2022-12-23T01:38:35.261Z,101171.16
2022-12-23T01:41:02.448Z,101138.38
2022-12-23T01:43:50.581Z,101157.94
2022-12-23T01:46:19.129Z,101153.97
2022-12-23T01:48:51.973Z,101177.19
2022-12-23T01:51:27.931Z,101152.41
2022-12-23T01:54:01.856Z,101128.03
2022-12-23T01:56:38.821Z,101104.44
2022-12-23T01:59:32.590Z,101130.00
2022-12-23T02:02:19.554Z,101162.78
2022-12-23T02:04:47.747Z,101124.81
2022-12-23T02:07:33.554Z,101150.78
2022-12-23T02:10:00.850Z,101142.00
2022-12-23T02:12:46.069Z,101102.81
2022-12-23T02:15:53.374Z,101152.41
2022-12-23T02:18:34.477Z,101149.19
2022-12-23T02:21:34.681Z,101157.97
2022-12-23T02:24:12.286Z,101151.59
2022-12-23T02:27:01.286Z,101142.75
2022-12-23T02:29:55.586Z,101148.78
2022-12-23T02:33:00.065Z,101149.16
2022-12-23T02:35:53.715Z,101153.19
2022-12-23T02:38:36.111Z,101119.22
2022-12-23T02:41:12.460Z,101164.75
2022-12-23T02:43:50.241Z,101156.78
2022-12-23T02:46:34.251Z,101086.03
2022-12-23T02:49:09.012Z,101119.59
2022-12-23T02:51:41.637Z,101129.19
2022-12-23T02:54:13.834Z,101108.38
2022-12-23T02:56:46.338Z,101152.75
2022-12-23T02:59:18.516Z,101153.94
2022-12-23T03:01:47.547Z,101164.75
2022-12-23T03:04:15.378Z,101146.38
2022-12-23T03:06:46.254Z,101110.03
2022-12-23T03:09:24.165Z,101088.47
2022-12-23T03:12:21.785Z,101165.97
2022-12-23T03:15:09.552Z,101157.19
2022-12-23T03:17:53.003Z,101133.19
2022-12-23T03:20:46.445Z,101129.59
2022-12-23T03:23:25.695Z,101131.19
2022-12-23T03:26:02.174Z,101173.19
2022-12-23T03:28:35.636Z,101158.78
2022-12-23T03:31:05.795Z,101155.56
2022-12-23T03:33:40.999Z,101141.22
2022-12-23T03:36:18.601Z,101129.22
2022-12-23T03:38:46.103Z,101158.78
2022-12-23T03:41:19.011Z,101160.38
2022-12-23T03:43:52.527Z,101126.41
2022-12-23T03:46:32.922Z,101146.38
2022-12-23T03:49:08.601Z,101140.38
2022-12-23T03:51:45.611Z,101143.19
2022-12-23T03:54:17.293Z,101138.78
2022-12-23T03:56:54.965Z,101121.63
2022-12-23T03:59:27.267Z,101149.59
2022-12-23T04:02:08.361Z,101127.59
2022-12-23T04:05:15.754Z,101148.41
2022-12-23T04:07:54.867Z,101148.78
2022-12-23T04:10:23.715Z,101098.03
2022-12-23T04:12:51.557Z,101140.78
2022-12-23T04:15:27.162Z,101153.16
2022-12-23T04:17:55.974Z,101158.78
2022-12-23T04:20:23.657Z,101126.00
2022-12-23T04:22:51.043Z,101146.00
2022-12-23T04:25:18.797Z,101140.38
2022-12-23T04:27:46.232Z,101106.81
2022-12-23T04:30:14.141Z,101101.25
2022-12-23T04:32:42.643Z,101121.19
2022-12-23T04:35:11.578Z,101128.81
2022-12-23T04:37:39.241Z,101135.59
2022-12-23T04:40:08.746Z,101114.03
2022-12-23T04:42:36.423Z,101107.22
2022-12-23T04:45:05.106Z,101112.81
2022-12-23T04:47:32.959Z,101128.00
2022-12-23T04:50:01.325Z,101126.44
2022-12-23T04:52:29.231Z,101094.03
2022-12-23T04:54:57.253Z,101066.06
2022-12-23T04:57:25.086Z,101134.81
2022-12-23T04:59:52.658Z,101145.19
2022-12-23T05:02:20.495Z,101142.81
2022-12-23T05:04:48.369Z,101127.63
2022-12-23T05:07:16.377Z,101170.81
2022-12-23T05:09:44.282Z,101084.84
2022-12-23T05:12:11.932Z,101126.44
2022-12-23T05:14:40.173Z,101116.03
2022-12-23T05:17:08.232Z,101123.22
2022-12-23T05:19:37.236Z,101144.41
2022-12-23T05:22:05.063Z,101153.22
2022-12-23T05:24:33.013Z,101124.81
2022-12-23T05:27:00.867Z,101150.81
2022-12-23T05:29:28.696Z,101116.44
2022-12-23T05:31:57.090Z,101136.81
2022-12-23T05:34:25.773Z,101149.22
2022-12-23T05:36:53.650Z,101146.00
2022-12-23T05:39:21.852Z,101154.41
2022-12-23T05:41:50.475Z,101138.81
2022-12-23T05:44:18.696Z,101138.41
2022-12-23T05:46:48.289Z,101140.03
2022-12-23T05:49:25.556Z,101117.22
2022-12-23T05:51:53.948Z,101170.81
2022-12-23T05:54:21.114Z,101126.81
2022-12-23T05:56:48.323Z,101150.78
2022-12-23T05:59:15.553Z,101136.78
2022-12-23T06:01:42.846Z,101134.78
2022-12-23T06:04:10.311Z,101168.38
2022-12-23T06:06:37.757Z,101148.00
2022-12-23T06:09:05.230Z,101168.41
2022-12-23T06:11:32.570Z,101134.81
2022-12-23T06:13:59.994Z,101164.41
2022-12-23T06:16:27.259Z,101140.81
2022-12-23T06:18:56.420Z,101149.19
2022-12-23T06:21:25.611Z,101140.81
2022-12-23T06:23:53.199Z,101169.16
2022-12-23T06:26:20.813Z,101104.38
2022-12-23T06:28:48.092Z,101167.59
2022-12-23T06:31:15.751Z,101172.41
2022-12-23T06:33:43.232Z,101145.19
2022-12-23T06:36:10.761Z,101159.59
2022-12-23T06:38:38.221Z,101147.59
2022-12-23T06:41:05.633Z,101140.03
2022-12-23T06:43:33.255Z,101139.63
2022-12-23T06:46:00.734Z,101125.22
2022-12-23T06:48:28.327Z,101171.59
2022-12-23T06:50:55.708Z,101164.41
2022-12-23T06:53:23.357Z,101162.00
2022-12-23T06:55:51.460Z,101130.81
2022-12-23T06:58:20.644Z,101130.81
2022-12-23T07:00:49.358Z,101110.84
2022-12-23T07:03:23.438Z,101117.63
2022-12-23T07:05:52.421Z,101082.84
2022-12-23T07:08:22.113Z,101160.34
2022-12-23T07:10:51.919Z,101170.31
2022-12-23T07:13:20.162Z,101141.94
2022-12-23T07:15:49.739Z,101147.16
2022-12-23T07:18:18.521Z,101156.72
2022-12-23T07:20:47.730Z,101126.78
2022-12-23T07:23:15.764Z,101149.13
2022-12-23T07:25:44.310Z,101112.75
2022-12-23T07:28:12.662Z,101104.78
2022-12-23T07:30:43.045Z,101168.31
2022-12-23T07:33:14.234Z,101135.94
2022-12-23T07:35:47.031Z,101130.78
2022-12-23T07:38:16.547Z,101162.75
2022-12-23T07:40:45.133Z,101161.16
2022-12-23T07:43:14.403Z,101177.09
2022-12-23T07:45:43.258Z,101128.31
2022-12-23T07:48:13.544Z,101163.81
2022-12-23T07:53:40.485Z,101114.56
2022-12-23T07:56:11.035Z,101175.16
2022-12-23T07:58:38.772Z,101155.19
2022-12-23T08:01:08.250Z,101182.28
2022-12-23T08:03:37.012Z,101189.03
2022-12-23T08:06:13.276Z,101156.22
2022-12-23T08:08:43.728Z,101159.84
2022-12-23T08:11:12.752Z,101190.97
2022-12-23T08:13:43.565Z,101174.94
2022-12-23T08:16:12.923Z,101158.06
2022-12-23T08:18:42.324Z,101203.59
2022-12-23T08:21:19.613Z,101200.28
2022-12-23T08:23:48.778Z,101177.88
2022-12-23T08:26:19.686Z,101152.34
2022-12-23T08:28:49.238Z,101176.66
2022-12-23T08:31:29.480Z,101169.66
2022-12-23T08:33:59.624Z,101174.47
2022-12-23T08:36:31.324Z,101215.72
2022-12-23T08:39:02.125Z,101200.06
2022-12-23T08:41:34.160Z,101176.78
2022-12-23T08:44:01.951Z,101181.47
2022-12-23T08:46:30.127Z,101211.69
2022-12-23T08:48:58.109Z,101186.09
2022-12-23T08:51:27.078Z,101214.91
2022-12-23T08:54:00.626Z,101210.97
2022-12-23T08:56:33.003Z,101183.72
2022-12-23T08:59:02.007Z,101187.78
2022-12-23T09:01:33.350Z,101181.56
2022-12-23T09:04:06.031Z,101164.25
2022-12-23T09:06:38.433Z,101147.06
2022-12-23T09:09:07.910Z,101174.72
2022-12-23T09:11:36.091Z,101161.66
2022-12-23T09:14:05.909Z,101175.78
2022-12-23T09:16:36.651Z,101174.06
2022-12-23T09:19:04.947Z,101142.63
2022-12-23T09:21:32.409Z,101143.25
2022-12-23T09:23:59.969Z,101166.53
2022-12-23T09:26:29.916Z,101160.28
2022-12-23T09:28:57.757Z,101144.22
2022-12-23T09:31:29.248Z,101155.13
2022-12-23T09:34:00.338Z,101107.78
2022-12-23T09:36:27.915Z,101100.97
2022-12-23T09:38:56.942Z,101163.66
2022-12-23T09:41:46.501Z,101123.44
2022-12-23T09:44:23.262Z,101157.97
2022-12-23T09:46:57.454Z,101159.47
2022-12-23T09:49:24.953Z,101116.00
2022-12-23T09:51:56.024Z,101112.88
2022-12-23T09:54:41.391Z,101113.19
2022-12-23T09:57:22.523Z,101142.59
2022-12-23T10:00:03.553Z,101159.16
2022-12-23T10:02:52.067Z,101125.19
2022-12-23T10:05:48.946Z,101153.59
2022-12-23T10:08:25.122Z,101154.66
2022-12-23T10:11:01.715Z,101155.34
2022-12-23T10:13:35.789Z,101142.00
2022-12-23T10:16:20.578Z,101135.47
2022-12-23T10:18:57.673Z,101136.97
2022-12-23T10:21:48.781Z,101133.69
2022-12-23T10:24:23.001Z,101124.09
2022-12-23T10:26:57.067Z,101103.66
2022-12-23T10:29:26.964Z,101117.03
2022-12-23T10:32:13.042Z,101114.09
2022-12-23T10:34:55.405Z,101109.56
2022-12-23T10:37:57.712Z,101103.78
2022-12-23T10:40:43.195Z,101087.56
2022-12-23T10:43:47.532Z,101086.75
2022-12-23T10:46:32.976Z,101063.81
2022-12-23T10:49:26.476Z,101082.28
2022-12-23T10:52:06.632Z,101057.19
2022-12-23T10:54:36.314Z,101062.25
2022-12-23T10:57:05.659Z,101074.56
2022-12-23T10:59:36.028Z,101067.88
2022-12-23T11:02:13.188Z,101063.06
2022-12-23T11:04:47.482Z,101057.78
2022-12-23T11:07:44.265Z,101058.16
2022-12-23T11:10:23.283Z,101043.16
2022-12-23T11:12:52.895Z,101047.91
2022-12-23T11:15:35.883Z,101051.72
2022-12-23T11:18:16.588Z,101051.25
2022-12-23T11:20:46.186Z,101039.66
2022-12-23T11:23:28.944Z,101047.75
2022-12-23T11:26:08.668Z,101043.38
2022-12-23T11:28:39.721Z,101036.13
2022-12-23T11:31:12.157Z,101037.50
2022-12-23T11:34:01.100Z,101036.56
2022-12-23T11:36:30.265Z,101029.16
2022-12-23T11:39:12.769Z,101032.00
2022-12-23T11:41:48.832Z,101024.59
2022-12-23T11:44:38.428Z,101028.38
2022-12-23T11:47:23.975Z,101019.22
2022-12-23T11:49:57.041Z,100995.94
2022-12-23T11:52:26.962Z,101007.59
2022-12-23T11:55:03.115Z,100999.97
2022-12-23T11:57:40.955Z,101014.84
2022-12-23T12:00:20.743Z,101002.94
2022-12-23T12:02:52.625Z,101006.75
2022-12-23T12:05:37.196Z,101017.56
2022-12-23T12:08:10.451Z,101013.84
2022-12-23T12:10:39.823Z,101006.88
2022-12-23T12:13:23.254Z,101019.50
2022-12-23T12:16:02.753Z,101015.56
2022-12-23T12:18:31.335Z,101006.56
2022-12-23T12:21:07.453Z,101014.91
2022-12-23T12:23:46.778Z,101011.88
2022-12-23T12:26:17.004Z,101020.06
2022-12-23T12:28:47.738Z,101020.97
2022-12-23T12:31:24.076Z,101025.84
2022-12-23T12:33:54.860Z,101020.91
2022-12-23T12:36:53.045Z,101030.31
2022-12-23T12:39:28.041Z,101026.50
2022-12-23T12:42:07.841Z,101026.09
2022-12-23T12:44:47.123Z,101015.16
2022-12-23T12:47:53.395Z,101019.91
2022-12-23T12:50:33.341Z,101026.50
2022-12-23T12:53:14.510Z,101028.50
2022-12-23T12:55:48.377Z,101023.00
2022-12-23T12:58:21.711Z,101035.00
2022-12-23T13:01:11.971Z,101030.25
2022-12-23T13:03:48.271Z,101032.91
2022-12-23T13:06:48.113Z,101027.75
2022-12-23T13:09:50.103Z,101012.44
2022-12-23T13:12:30.701Z,101032.69
2022-12-23T13:15:20.892Z,101026.63
2022-12-23T13:18:11.556Z,101022.84
2022-12-23T13:20:38.712Z,101028.53
2022-12-23T13:26:29.310Z,101013.56
2022-12-23T13:29:05.119Z,101031.28
2022-12-23T13:31:53.961Z,101012.19
2022-12-23T13:34:46.307Z,101006.56
2022-12-23T13:37:40.547Z,101024.47
2022-12-23T13:40:33.382Z,101028.00
2022-12-23T13:43:09.862Z,101020.91
2022-12-23T13:45:59.404Z,101017.28
2022-12-23T13:48:29.444Z,101022.22
2022-12-23T13:51:11.892Z,101016.03
2022-12-23T13:54:04.098Z,101011.47
2022-12-23T13:57:08.656Z,101022.06
2022-12-23T13:59:40.720Z,101007.97
2022-12-23T14:02:36.057Z,101006.72
2022-12-23T14:05:09.317Z,100999.59
2022-12-23T14:07:39.118Z,101018.91
2022-12-23T14:10:19.896Z,101016.06
2022-12-23T14:12:48.004Z,101008.31
2022-12-23T14:15:15.400Z,101026.81
2022-12-23T14:18:04.874Z,100996.44
2022-12-23T14:20:54.692Z,101016.50
2022-12-23T14:23:39.326Z,101024.91
2022-12-23T14:26:18.174Z,101018.25
2022-12-23T14:28:55.058Z,101021.13
2022-12-23T14:31:31.368Z,101023.94
2022-12-23T14:34:26.896Z,101014.75
2022-12-23T14:37:16.572Z,101022.91
2022-12-23T14:39:44.032Z,101027.09
2022-12-23T14:42:16.512Z,101028.47
2022-12-23T14:44:47.014Z,100999.03
2022-12-23T14:47:34.828Z,101013.91
2022-12-23T14:50:33.192Z,101019.91
2022-12-23T14:53:02.786Z,101017.81
2022-12-23T14:55:31.639Z,101013.53
2022-12-23T14:58:07.919Z,101023.41
2022-12-23T15:00:46.682Z,101009.28
2022-12-23T15:03:14.008Z,101012.88
2022-12-23T15:05:41.370Z,101025.00
2022-12-23T15:08:26.929Z,101029.44
2022-12-23T15:10:54.317Z,101038.69
2022-12-23T15:13:23.786Z,101034.59
2022-12-23T15:15:58.970Z,101031.63
2022-12-23T15:18:28.627Z,101027.97
2022-12-23T15:21:00.351Z,101043.69
2022-12-23T15:23:27.878Z,101028.94
2022-12-23T15:25:59.402Z,101037.38
2022-12-23T15:28:41.506Z,101034.44
2022-12-23T15:31:31.583Z,101034.69
2022-12-23T15:34:06.118Z,101035.59
2022-12-23T15:36:40.603Z,101030.19
2022-12-23T15:39:17.445Z,101001.06
2022-12-23T15:41:47.463Z,101032.34
2022-12-23T15:44:27.147Z,101031.81
2022-12-23T15:46:54.368Z,101013.94
2022-12-23T15:49:22.019Z,101042.47
2022-12-23T15:52:16.485Z,101038.03
2022-12-23T15:54:52.214Z,101034.31
2022-12-23T15:57:24.384Z,101040.44
2022-12-23T15:59:51.786Z,101049.16
2022-12-23T16:05:33.701Z,101044.41
2022-12-23T16:08:10.856Z,101064.69
2022-12-23T16:10:38.473Z,101028.84
2022-12-23T16:13:21.056Z,101062.75
2022-12-23T16:15:48.445Z,101053.75
2022-12-23T16:18:26.371Z,101066.69
2022-12-23T16:20:58.047Z,101069.81
2022-12-23T16:23:30.318Z,101049.97
2022-12-23T16:26:00.371Z,101056.97
2022-12-23T16:28:38.667Z,101067.53
2022-12-23T16:31:08.143Z,101059.94
2022-12-23T16:33:38.292Z,101078.19
2022-12-23T16:36:20.646Z,101074.41
2022-12-23T16:38:49.985Z,101069.53
2022-12-23T16:41:17.392Z,101071.47
2022-12-23T16:43:51.469Z,101071.47
2022-12-23T16:46:22.657Z,101061.59
2022-12-23T16:48:56.024Z,101064.31
2022-12-23T16:51:24.079Z,101064.19
2022-12-23T16:53:57.810Z,101059.72
2022-12-23T16:56:28.964Z,101063.94
2022-12-23T16:58:56.138Z,101047.94
2022-12-23T17:01:23.442Z,101062.19
2022-12-23T17:03:51.235Z,101083.34
2022-12-23T17:06:19.931Z,101089.53
2022-12-23T17:08:47.442Z,101077.78
2022-12-23T17:11:15.496Z,101087.63
2022-12-23T17:13:43.357Z,101088.13
2022-12-23T17:16:15.658Z,101078.69
2022-12-23T17:18:42.927Z,101083.66
2022-12-23T17:21:28.495Z,101093.00
2022-12-23T17:24:03.437Z,101100.25
2022-12-23T17:26:30.613Z,101078.34
2022-12-23T17:28:58.228Z,101103.06
2022-12-23T17:31:27.252Z,101096.69
2022-12-23T17:33:54.782Z,101094.13
2022-12-23T17:36:22.248Z,101096.50
2022-12-23T17:38:49.621Z,101098.47
2022-12-23T17:41:31.288Z,101101.22
2022-12-23T17:43:59.359Z,101105.69
2022-12-23T17:46:29.033Z,101101.00
2022-12-23T17:48:59.560Z,101082.56
2022-12-23T17:51:27.765Z,101094.75
2022-12-23T17:53:57.988Z,101042.47
2022-12-23T17:56:28.677Z,101084.69
2022-12-23T17:58:56.036Z,101056.06
2022-12-23T18:01:27.901Z,101074.59
2022-12-23T18:03:55.928Z,101064.44
2022-12-23T18:06:25.398Z,101064.34
2022-12-23T18:08:52.733Z,101061.00
2022-12-23T18:11:27.044Z,101059.25
2022-12-23T18:13:54.418Z,101056.34
2022-12-23T18:16:21.756Z,101061.63
2022-12-23T18:18:49.276Z,101057.56
2022-12-23T18:21:28.532Z,101059.16
2022-12-23T18:23:59.169Z,101058.81
2022-12-23T18:26:26.827Z,101056.34
2022-12-23T18:28:54.678Z,101050.44
2022-12-23T18:31:24.463Z,101056.78
2022-12-23T18:33:52.963Z,101065.69
2022-12-23T18:36:22.416Z,101066.56
2022-12-23T18:38:49.769Z,101070.44
2022-12-23T18:41:17.185Z,101065.22
2022-12-23T18:43:44.402Z,101050.28
2022-12-23T18:46:11.613Z,101065.38
2022-12-23T18:48:39.015Z,101061.69
2022-12-23T18:51:06.815Z,101065.81
2022-12-23T18:53:34.128Z,101046.69
2022-12-23T18:56:01.382Z,101018.56
2022-12-23T18:58:29.302Z,101022.91
2022-12-23T19:00:57.128Z,101060.94
2022-12-23T19:03:30.101Z,101076.78
2022-12-23T19:06:06.714Z,101069.13
2022-12-23T19:08:36.247Z,101072.72
2022-12-23T19:11:11.798Z,101081.25
2022-12-23T19:13:39.504Z,101032.72
2022-12-23T19:16:22.351Z,101034.97
2022-12-23T19:18:50.535Z,101063.38
2022-12-23T19:21:20.916Z,101063.44
2022-12-23T19:23:48.735Z,101051.84
2022-12-23T19:26:19.116Z,101076.09
2022-12-23T19:28:48.754Z,101074.25
2022-12-23T19:31:17.784Z,101093.44
2022-12-23T19:33:52.517Z,101060.75
2022-12-23T19:36:49.267Z,101072.53
2022-12-23T19:39:18.318Z,101027.22
2022-12-23T19:41:46.257Z,101091.66
2022-12-23T19:44:14.204Z,101082.09
2022-12-23T19:46:42.016Z,101111.94
2022-12-23T19:49:12.788Z,101113.16
2022-12-23T19:51:44.957Z,101059.84
2022-12-23T19:54:17.922Z,101125.94
2022-12-23T19:56:46.663Z,101103.16
2022-12-23T19:59:13.917Z,101102.31
2022-12-23T20:01:41.187Z,101092.38
2022-12-23T20:04:11.301Z,101073.97
2022-12-23T20:06:45.591Z,101074.13
2022-12-23T20:09:15.990Z,101100.91
2022-12-23T20:11:46.459Z,101047.56
2022-12-23T20:14:16.930Z,101097.50
2022-12-23T20:16:45.083Z,101086.31
2022-12-23T20:19:12.726Z,101089.66
2022-12-23T20:21:40.416Z,101050.91
2022-12-23T20:24:08.644Z,101097.06
2022-12-23T20:26:36.186Z,101099.19
2022-12-23T20:29:04.035Z,101101.34
2022-12-23T20:31:33.375Z,101076.38
2022-12-23T20:34:01.879Z,101090.00
2022-12-23T20:36:32.485Z,101098.47
2022-12-23T20:39:00.313Z,101080.91
2022-12-23T20:41:32.891Z,101100.94
2022-12-23T20:46:49.741Z,101067.47
2022-12-23T20:49:17.291Z,101068.72
2022-12-23T20:51:44.757Z,101072.09
2022-12-23T20:54:11.967Z,101097.66
2022-12-23T20:56:39.232Z,101090.28
2022-12-23T20:59:06.392Z,101085.44
2022-12-23T21:01:36.224Z,101087.84
2022-12-23T21:04:18.088Z,101082.06
2022-12-23T21:06:45.711Z,101086.06
2022-12-23T21:09:14.836Z,101090.16
2022-12-23T21:11:44.853Z,101082.28
2022-12-23T21:14:13.038Z,101077.44
2022-12-23T21:16:40.677Z,101081.06
2022-12-23T21:19:09.398Z,101070.91
2022-12-23T21:21:36.703Z,101072.59
2022-12-23T21:24:05.143Z,101083.72
2022-12-23T21:26:34.159Z,101081.34
2022-12-23T21:29:04.150Z,101080.97
2022-12-23T21:31:33.375Z,101086.16
2022-12-23T21:34:00.755Z,101081.31
2022-12-23T21:36:31.330Z,101096.91
2022-12-23T21:38:59.630Z,101081.31
2022-12-23T21:41:29.513Z,101085.78
2022-12-23T21:43:58.009Z,101082.97
2022-12-23T21:46:26.017Z,101081.88
2022-12-23T21:48:55.076Z,101082.69
2022-12-23T21:51:38.897Z,101081.38
2022-12-23T21:54:12.819Z,101032.28
2022-12-23T21:56:46.618Z,101038.72
2022-12-23T21:59:15.160Z,101026.06
2022-12-23T22:01:43.117Z,101069.81
2022-12-23T22:04:11.448Z,101069.38
2022-12-23T22:06:43.874Z,101065.81
2022-12-23T22:09:15.381Z,101059.09
2022-12-23T22:11:43.335Z,101059.81
2022-12-23T22:14:13.701Z,101060.91
2022-12-23T22:16:40.883Z,101056.72
2022-12-23T22:19:10.883Z,101058.34
2022-12-23T22:21:39.901Z,101061.69
2022-12-23T22:24:07.916Z,101058.19
2022-12-23T22:26:36.058Z,101040.22
2022-12-23T22:29:05.747Z,101063.31
2022-12-23T22:31:40.396Z,101054.03
2022-12-23T22:34:09.265Z,101040.22
2022-12-23T22:36:36.733Z,101027.84
2022-12-23T22:39:04.281Z,101052.47
2022-12-23T22:41:32.349Z,101040.53
2022-12-23T22:43:59.960Z,101050.19
2022-12-23T22:46:28.123Z,101061.47
2022-12-23T22:48:56.423Z,101057.13
2022-12-23T22:51:26.180Z,101067.91
2022-12-23T22:53:54.188Z,101059.44
2022-12-23T22:56:22.510Z,101047.94
2022-12-23T22:58:50.497Z,101059.06
2022-12-23T23:01:25.216Z,101052.91
2022-12-23T23:03:57.534Z,101047.34
2022-12-23T23:06:40.282Z,101047.69
2022-12-23T23:09:10.208Z,101028.00
2022-12-23T23:11:37.392Z,100998.84
2022-12-23T23:14:05.047Z,101035.06
2022-12-23T23:16:33.329Z,101029.41
2022-12-23T23:19:00.902Z,101032.16
2022-12-23T23:21:28.022Z,101036.91
2022-12-23T23:23:55.274Z,101033.72
2022-12-23T23:26:26.740Z,101029.34
2022-12-23T23:28:55.216Z,101005.44
2022-12-23T23:34:10.129Z,101034.09
2022-12-23T23:36:37.417Z,101024.06
2022-12-23T23:39:04.707Z,101017.56
2022-12-23T23:41:31.941Z,101012.19
2022-12-23T23:43:59.081Z,101019.16
2022-12-23T23:46:26.396Z,101011.06
2022-12-23T23:48:53.642Z,101009.88
2022-12-23T23:51:20.812Z,101007.41
2022-12-23T23:53:47.996Z,101008.22
2022-12-23T23:56:17.228Z,100994.56
2022-12-23T23:58:47.664Z,101004.84
